sensor_id;sensor_type;location;lat;lon;timestamp;P1;durP1;ratioP1;P2;durP2;ratioP2
10957;SDS011;5531;42.570;23.676;2023-03-03T00:01:42;85.75;;;10.35;;
10957;SDS011;5531;42.570;23.676;2023-03-03T00:04:11;114.03;;;11.25;;
10957;SDS011;5531;42.570;23.676;2023-03-03T00:06:40;105.68;;;11.25;;
10957;SDS011;5531;42.570;23.676;2023-03-03T00:09:09;122.97;;;10.52;;
10957;SDS011;5531;42.570;23.676;2023-03-03T00:11:38;84.40;;;10.63;;
10957;SDS011;5531;42.570;23.676;2023-03-03T00:14:16;84.60;;;11.18;;
10957;SDS011;5531;42.570;23.676;2023-03-03T00:16:49;122.93;;;13.07;;
10957;SDS011;5531;42.570;23.676;2023-03-03T00:19:18;113.03;;;12.02;;
10957;SDS011;5531;42.570;23.676;2023-03-03T00:21:49;241.93;;;15.85;;
10957;SDS011;5531;42.570;23.676;2023-03-03T00:24:20;125.32;;;12.57;;
10957;SDS011;5531;42.570;23.676;2023-03-03T00:26:50;97.13;;;11.35;;
10957;SDS011;5531;42.570;23.676;2023-03-03T00:32:18;200.20;;;14.00;;
10957;SDS011;5531;42.570;23.676;2023-03-03T00:34:50;126.60;;;12.30;;
10957;SDS011;5531;42.570;23.676;2023-03-03T00:37:22;189.50;;;14.55;;
10957;SDS011;5531;42.570;23.676;2023-03-03T00:40:00;148.88;;;13.32;;
10957;SDS011;5531;42.570;23.676;2023-03-03T00:42:40;84.28;;;10.60;;
10957;SDS011;5531;42.570;23.676;2023-03-03T00:48:07;106.78;;;12.35;;
10957;SDS011;5531;42.570;23.676;2023-03-03T00:50:48;150.70;;;13.35;;
10957;SDS011;5531;42.570;23.676;2023-03-03T00:53:18;58.65;;;11.15;;
10957;SDS011;5531;42.570;23.676;2023-03-03T00:55:49;110.65;;;13.35;;
10957;SDS011;5531;42.570;23.676;2023-03-03T00:58:19;66.18;;;12.68;;
10957;SDS011;5531;42.570;23.676;2023-03-03T01:00:52;86.60;;;13.35;;
10957;SDS011;5531;42.570;23.676;2023-03-03T01:03:24;121.03;;;14.82;;
10957;SDS011;5531;42.570;23.676;2023-03-03T01:05:54;79.03;;;13.43;;
10957;SDS011;5531;42.570;23.676;2023-03-03T01:08:23;93.85;;;13.55;;
10957;SDS011;5531;42.570;23.676;2023-03-03T01:10:53;80.90;;;12.77;;
10957;SDS011;5531;42.570;23.676;2023-03-03T01:13:25;106.60;;;13.82;;
10957;SDS011;5531;42.570;23.676;2023-03-03T01:15:58;95.15;;;13.75;;
10957;SDS011;5531;42.570;23.676;2023-03-03T01:18:28;81.85;;;12.75;;
10957;SDS011;5531;42.570;23.676;2023-03-03T01:20:58;70.00;;;12.38;;
10957;SDS011;5531;42.570;23.676;2023-03-03T01:23:27;49.38;;;12.15;;
10957;SDS011;5531;42.570;23.676;2023-03-03T01:25:56;74.30;;;13.27;;
10957;SDS011;5531;42.570;23.676;2023-03-03T01:28:25;60.60;;;12.88;;
10957;SDS011;5531;42.570;23.676;2023-03-03T01:31:01;36.20;;;11.88;;
10957;SDS011;5531;42.570;23.676;2023-03-03T01:33:31;36.78;;;12.18;;
10957;SDS011;5531;42.570;23.676;2023-03-03T01:36:02;40.67;;;12.38;;
10957;SDS011;5531;42.570;23.676;2023-03-03T01:38:33;36.22;;;12.32;;
10957;SDS011;5531;42.570;23.676;2023-03-03T01:41:03;78.78;;;13.93;;
10957;SDS011;5531;42.570;23.676;2023-03-03T01:43:32;56.30;;;13.10;;
10957;SDS011;5531;42.570;23.676;2023-03-03T01:49:06;31.20;;;12.63;;
10957;SDS011;5531;42.570;23.676;2023-03-03T01:51:43;41.70;;;12.50;;
10957;SDS011;5531;42.570;23.676;2023-03-03T01:54:17;39.85;;;12.98;;
10957;SDS011;5531;42.570;23.676;2023-03-03T01:56:51;54.78;;;12.95;;
10957;SDS011;5531;42.570;23.676;2023-03-03T01:59:25;37.92;;;13.02;;
10957;SDS011;5531;42.570;23.676;2023-03-03T02:01:58;30.08;;;13.82;;
10957;SDS011;5531;42.570;23.676;2023-03-03T02:04:29;47.28;;;13.50;;
10957;SDS011;5531;42.570;23.676;2023-03-03T02:06:59;28.98;;;12.43;;
10957;SDS011;5531;42.570;23.676;2023-03-03T02:09:36;54.50;;;13.82;;
10957;SDS011;5531;42.570;23.676;2023-03-03T02:12:11;59.80;;;14.70;;
10957;SDS011;5531;42.570;23.676;2023-03-03T02:14:44;33.35;;;13.38;;
10957;SDS011;5531;42.570;23.676;2023-03-03T02:17:13;41.80;;;14.52;;
10957;SDS011;5531;42.570;23.676;2023-03-03T02:19:46;41.97;;;15.20;;
10957;SDS011;5531;42.570;23.676;2023-03-03T02:22:24;46.45;;;17.42;;
10957;SDS011;5531;42.570;23.676;2023-03-03T02:25:02;46.85;;;18.25;;
10957;SDS011;5531;42.570;23.676;2023-03-03T02:27:38;49.97;;;19.67;;
10957;SDS011;5531;42.570;23.676;2023-03-03T02:30:08;58.80;;;19.00;;
10957;SDS011;5531;42.570;23.676;2023-03-03T02:32:43;29.58;;;16.45;;
10957;SDS011;5531;42.570;23.676;2023-03-03T02:35:25;36.55;;;16.33;;
10957;SDS011;5531;42.570;23.676;2023-03-03T02:37:58;25.98;;;15.25;;
10957;SDS011;5531;42.570;23.676;2023-03-03T02:40:43;29.75;;;13.65;;
10957;SDS011;5531;42.570;23.676;2023-03-03T02:43:21;32.00;;;13.88;;
10957;SDS011;5531;42.570;23.676;2023-03-03T02:45:54;33.60;;;14.30;;
10957;SDS011;5531;42.570;23.676;2023-03-03T02:48:23;32.20;;;14.07;;
10957;SDS011;5531;42.570;23.676;2023-03-03T02:50:52;33.40;;;13.95;;
10957;SDS011;5531;42.570;23.676;2023-03-03T02:53:21;30.70;;;13.82;;
10957;SDS011;5531;42.570;23.676;2023-03-03T02:55:50;31.35;;;13.02;;
10957;SDS011;5531;42.570;23.676;2023-03-03T02:58:19;36.47;;;14.10;;
10957;SDS011;5531;42.570;23.676;2023-03-03T03:00:50;24.98;;;13.55;;
10957;SDS011;5531;42.570;23.676;2023-03-03T03:03:19;23.73;;;12.55;;
10957;SDS011;5531;42.570;23.676;2023-03-03T03:05:48;29.05;;;12.60;;
10957;SDS011;5531;42.570;23.676;2023-03-03T03:08:18;21.52;;;11.75;;
10957;SDS011;5531;42.570;23.676;2023-03-03T03:10:47;21.98;;;12.25;;
10957;SDS011;5531;42.570;23.676;2023-03-03T03:13:16;24.58;;;12.27;;
10957;SDS011;5531;42.570;23.676;2023-03-03T03:15:48;25.10;;;12.65;;
10957;SDS011;5531;42.570;23.676;2023-03-03T03:18:17;24.00;;;12.15;;
10957;SDS011;5531;42.570;23.676;2023-03-03T03:20:46;26.80;;;12.98;;
10957;SDS011;5531;42.570;23.676;2023-03-03T03:23:15;21.40;;;13.07;;
10957;SDS011;5531;42.570;23.676;2023-03-03T03:25:46;23.75;;;13.05;;
10957;SDS011;5531;42.570;23.676;2023-03-03T03:28:15;25.25;;;13.52;;
10957;SDS011;5531;42.570;23.676;2023-03-03T03:30:49;23.08;;;12.90;;
10957;SDS011;5531;42.570;23.676;2023-03-03T03:33:19;25.63;;;12.55;;
10957;SDS011;5531;42.570;23.676;2023-03-03T03:35:48;29.70;;;13.63;;
10957;SDS011;5531;42.570;23.676;2023-03-03T03:38:17;31.05;;;13.70;;
10957;SDS011;5531;42.570;23.676;2023-03-03T03:40:46;27.02;;;13.85;;
10957;SDS011;5531;42.570;23.676;2023-03-03T03:43:15;32.85;;;14.52;;
10957;SDS011;5531;42.570;23.676;2023-03-03T03:45:44;28.40;;;12.93;;
10957;SDS011;5531;42.570;23.676;2023-03-03T03:48:16;29.33;;;13.57;;
10957;SDS011;5531;42.570;23.676;2023-03-03T03:50:45;36.35;;;14.73;;
10957;SDS011;5531;42.570;23.676;2023-03-03T03:53:15;36.67;;;14.73;;
10957;SDS011;5531;42.570;23.676;2023-03-03T03:55:45;29.08;;;12.23;;
10957;SDS011;5531;42.570;23.676;2023-03-03T03:58:14;41.53;;;13.40;;
10957;SDS011;5531;42.570;23.676;2023-03-03T04:00:45;41.85;;;14.05;;
10957;SDS011;5531;42.570;23.676;2023-03-03T04:03:17;21.50;;;11.90;;
10957;SDS011;5531;42.570;23.676;2023-03-03T04:05:46;33.22;;;12.88;;
10957;SDS011;5531;42.570;23.676;2023-03-03T04:08:15;34.50;;;13.23;;
10957;SDS011;5531;42.570;23.676;2023-03-03T04:10:44;32.35;;;13.13;;
10957;SDS011;5531;42.570;23.676;2023-03-03T04:13:13;38.85;;;13.80;;
10957;SDS011;5531;42.570;23.676;2023-03-03T04:15:42;39.00;;;13.15;;
10957;SDS011;5531;42.570;23.676;2023-03-03T04:18:13;52.67;;;13.77;;
10957;SDS011;5531;42.570;23.676;2023-03-03T04:20:42;46.30;;;13.68;;
10957;SDS011;5531;42.570;23.676;2023-03-03T04:23:11;42.33;;;13.65;;
10957;SDS011;5531;42.570;23.676;2023-03-03T04:25:40;35.95;;;13.57;;
10957;SDS011;5531;42.570;23.676;2023-03-03T04:28:09;53.45;;;13.80;;
10957;SDS011;5531;42.570;23.676;2023-03-03T04:30:38;43.00;;;14.07;;
10957;SDS011;5531;42.570;23.676;2023-03-03T04:33:07;42.58;;;13.98;;
10957;SDS011;5531;42.570;23.676;2023-03-03T04:35:39;43.50;;;15.00;;
10957;SDS011;5531;42.570;23.676;2023-03-03T04:38:08;37.83;;;14.80;;
10957;SDS011;5531;42.570;23.676;2023-03-03T04:40:38;28.95;;;13.77;;
10957;SDS011;5531;42.570;23.676;2023-03-03T04:43:08;31.35;;;13.77;;
10957;SDS011;5531;42.570;23.676;2023-03-03T04:45:38;26.13;;;13.90;;
10957;SDS011;5531;42.570;23.676;2023-03-03T04:48:07;26.52;;;14.35;;
10957;SDS011;5531;42.570;23.676;2023-03-03T04:50:38;27.00;;;13.95;;
10957;SDS011;5531;42.570;23.676;2023-03-03T04:53:09;24.30;;;13.40;;
10957;SDS011;5531;42.570;23.676;2023-03-03T04:55:38;25.38;;;12.93;;
10957;SDS011;5531;42.570;23.676;2023-03-03T04:58:07;24.20;;;13.77;;
10957;SDS011;5531;42.570;23.676;2023-03-03T05:00:36;27.60;;;14.73;;
10957;SDS011;5531;42.570;23.676;2023-03-03T05:03:06;31.35;;;13.98;;
10957;SDS011;5531;42.570;23.676;2023-03-03T05:05:40;33.10;;;14.75;;
10957;SDS011;5531;42.570;23.676;2023-03-03T05:08:09;27.27;;;14.02;;
10957;SDS011;5531;42.570;23.676;2023-03-03T05:10:38;22.67;;;13.75;;
10957;SDS011;5531;42.570;23.676;2023-03-03T05:13:08;24.30;;;13.98;;
10957;SDS011;5531;42.570;23.676;2023-03-03T05:15:39;25.63;;;15.10;;
10957;SDS011;5531;42.570;23.676;2023-03-03T05:18:08;26.13;;;16.08;;
10957;SDS011;5531;42.570;23.676;2023-03-03T05:20:41;27.83;;;16.70;;
10957;SDS011;5531;42.570;23.676;2023-03-03T05:23:10;26.15;;;18.08;;
10957;SDS011;5531;42.570;23.676;2023-03-03T05:25:39;34.97;;;19.33;;
10957;SDS011;5531;42.570;23.676;2023-03-03T05:28:09;38.25;;;21.83;;
10957;SDS011;5531;42.570;23.676;2023-03-03T05:30:38;37.38;;;24.20;;
10957;SDS011;5531;42.570;23.676;2023-03-03T05:33:09;35.78;;;23.95;;
10957;SDS011;5531;42.570;23.676;2023-03-03T05:35:44;30.23;;;21.55;;
10957;SDS011;5531;42.570;23.676;2023-03-03T05:38:13;31.45;;;19.88;;
10957;SDS011;5531;42.570;23.676;2023-03-03T05:40:42;28.88;;;19.75;;
10957;SDS011;5531;42.570;23.676;2023-03-03T05:43:11;30.77;;;19.60;;
10957;SDS011;5531;42.570;23.676;2023-03-03T05:45:40;30.30;;;19.02;;
10957;SDS011;5531;42.570;23.676;2023-03-03T05:48:09;33.20;;;20.23;;
10957;SDS011;5531;42.570;23.676;2023-03-03T05:50:38;31.70;;;19.95;;
10957;SDS011;5531;42.570;23.676;2023-03-03T05:53:10;34.85;;;21.25;;
10957;SDS011;5531;42.570;23.676;2023-03-03T05:55:39;32.67;;;19.85;;
10957;SDS011;5531;42.570;23.676;2023-03-03T05:58:08;33.78;;;18.55;;
10957;SDS011;5531;42.570;23.676;2023-03-03T06:00:37;33.38;;;18.98;;
10957;SDS011;5531;42.570;23.676;2023-03-03T06:03:06;34.85;;;20.10;;
10957;SDS011;5531;42.570;23.676;2023-03-03T06:05:35;30.95;;;19.13;;
10957;SDS011;5531;42.570;23.676;2023-03-03T06:08:04;37.97;;;19.92;;
10957;SDS011;5531;42.570;23.676;2023-03-03T06:10:36;54.53;;;20.10;;
10957;SDS011;5531;42.570;23.676;2023-03-03T06:13:05;78.50;;;22.45;;
10957;SDS011;5531;42.570;23.676;2023-03-03T06:15:34;96.25;;;24.20;;
10957;SDS011;5531;42.570;23.676;2023-03-03T06:18:03;65.03;;;21.77;;
10957;SDS011;5531;42.570;23.676;2023-03-03T06:20:32;62.80;;;22.30;;
10957;SDS011;5531;42.570;23.676;2023-03-03T06:23:02;52.45;;;21.92;;
10957;SDS011;5531;42.570;23.676;2023-03-03T06:25:32;56.83;;;22.08;;
10957;SDS011;5531;42.570;23.676;2023-03-03T06:28:08;39.80;;;19.88;;
10957;SDS011;5531;42.570;23.676;2023-03-03T06:30:41;57.80;;;20.63;;
10957;SDS011;5531;42.570;23.676;2023-03-03T06:33:10;41.60;;;20.67;;
10957;SDS011;5531;42.570;23.676;2023-03-03T06:35:39;56.50;;;21.02;;
10957;SDS011;5531;42.570;23.676;2023-03-03T06:38:08;42.28;;;21.48;;
10957;SDS011;5531;42.570;23.676;2023-03-03T06:40:37;41.65;;;21.83;;
10957;SDS011;5531;42.570;23.676;2023-03-03T06:43:09;51.97;;;23.35;;
10957;SDS011;5531;42.570;23.676;2023-03-03T06:45:38;54.28;;;25.55;;
10957;SDS011;5531;42.570;23.676;2023-03-03T06:48:07;53.30;;;26.70;;
10957;SDS011;5531;42.570;23.676;2023-03-03T06:50:36;35.67;;;21.77;;
10957;SDS011;5531;42.570;23.676;2023-03-03T06:53:09;34.25;;;19.48;;
10957;SDS011;5531;42.570;23.676;2023-03-03T06:55:40;43.65;;;20.92;;
10957;SDS011;5531;42.570;23.676;2023-03-03T06:58:13;45.53;;;22.52;;
10957;SDS011;5531;42.570;23.676;2023-03-03T07:00:43;59.88;;;23.05;;
10957;SDS011;5531;42.570;23.676;2023-03-03T07:03:14;63.40;;;25.05;;
10957;SDS011;5531;42.570;23.676;2023-03-03T07:05:44;74.50;;;27.30;;
10957;SDS011;5531;42.570;23.676;2023-03-03T07:08:14;54.35;;;23.67;;
10957;SDS011;5531;42.570;23.676;2023-03-03T07:10:45;97.72;;;25.95;;
10957;SDS011;5531;42.570;23.676;2023-03-03T07:13:21;88.00;;;24.70;;
10957;SDS011;5531;42.570;23.676;2023-03-03T07:15:52;84.03;;;24.77;;
10957;SDS011;5531;42.570;23.676;2023-03-03T07:18:34;157.68;;;26.60;;
10957;SDS011;5531;42.570;23.676;2023-03-03T07:21:12;156.77;;;26.15;;
10957;SDS011;5531;42.570;23.676;2023-03-03T07:23:44;87.90;;;24.63;;
10957;SDS011;5531;42.570;23.676;2023-03-03T07:26:15;88.93;;;25.00;;
10957;SDS011;5531;42.570;23.676;2023-03-03T07:28:51;201.02;;;24.27;;
10957;SDS011;5531;42.570;23.676;2023-03-03T07:31:26;168.93;;;25.17;;
10957;SDS011;5531;42.570;23.676;2023-03-03T07:33:58;104.82;;;22.83;;
10957;SDS011;5531;42.570;23.676;2023-03-03T07:36:28;76.82;;;20.40;;
10957;SDS011;5531;42.570;23.676;2023-03-03T07:39:02;78.95;;;20.55;;
10957;SDS011;5531;42.570;23.676;2023-03-03T07:41:45;53.08;;;18.73;;
10957;SDS011;5531;42.570;23.676;2023-03-03T07:44:18;58.85;;;19.85;;
10957;SDS011;5531;42.570;23.676;2023-03-03T07:46:51;53.97;;;19.58;;
10957;SDS011;5531;42.570;23.676;2023-03-03T07:49:21;44.72;;;19.38;;
10957;SDS011;5531;42.570;23.676;2023-03-03T07:51:52;67.15;;;22.08;;
10957;SDS011;5531;42.570;23.676;2023-03-03T07:54:26;89.18;;;21.02;;
10957;SDS011;5531;42.570;23.676;2023-03-03T07:57:00;56.63;;;19.73;;
10957;SDS011;5531;42.570;23.676;2023-03-03T07:59:43;49.58;;;19.83;;
10957;SDS011;5531;42.570;23.676;2023-03-03T08:02:30;53.33;;;20.33;;
10957;SDS011;5531;42.570;23.676;2023-03-03T08:08:09;59.58;;;19.85;;
10957;SDS011;5531;42.570;23.676;2023-03-03T08:10:47;62.38;;;21.13;;
10957;SDS011;5531;42.570;23.676;2023-03-03T08:13:18;65.20;;;20.42;;
10957;SDS011;5531;42.570;23.676;2023-03-03T08:15:51;52.28;;;23.83;;
10957;SDS011;5531;42.570;23.676;2023-03-03T08:18:24;49.13;;;28.98;;
10957;SDS011;5531;42.570;23.676;2023-03-03T08:20:57;37.88;;;20.45;;
10957;SDS011;5531;42.570;23.676;2023-03-03T08:23:28;40.22;;;23.38;;
10957;SDS011;5531;42.570;23.676;2023-03-03T08:25:57;33.97;;;19.50;;
10957;SDS011;5531;42.570;23.676;2023-03-03T08:28:26;32.90;;;19.25;;
10957;SDS011;5531;42.570;23.676;2023-03-03T08:30:58;34.80;;;18.13;;
10957;SDS011;5531;42.570;23.676;2023-03-03T08:33:27;34.25;;;19.05;;
10957;SDS011;5531;42.570;23.676;2023-03-03T08:35:56;34.13;;;19.95;;
10957;SDS011;5531;42.570;23.676;2023-03-03T08:38:25;33.90;;;20.00;;
10957;SDS011;5531;42.570;23.676;2023-03-03T08:40:54;29.27;;;18.45;;
10957;SDS011;5531;42.570;23.676;2023-03-03T08:43:24;32.40;;;20.48;;
10957;SDS011;5531;42.570;23.676;2023-03-03T08:45:56;32.22;;;19.23;;
10957;SDS011;5531;42.570;23.676;2023-03-03T08:48:29;31.27;;;18.40;;
10957;SDS011;5531;42.570;23.676;2023-03-03T08:50:59;28.17;;;18.55;;
10957;SDS011;5531;42.570;23.676;2023-03-03T08:53:29;27.58;;;18.33;;
10957;SDS011;5531;42.570;23.676;2023-03-03T08:56:00;27.10;;;17.45;;
10957;SDS011;5531;42.570;23.676;2023-03-03T08:58:31;24.67;;;16.17;;
10957;SDS011;5531;42.570;23.676;2023-03-03T09:01:03;24.10;;;15.45;;
10957;SDS011;5531;42.570;23.676;2023-03-03T09:03:32;26.48;;;15.93;;
10957;SDS011;5531;42.570;23.676;2023-03-03T09:06:01;30.60;;;17.42;;
10957;SDS011;5531;42.570;23.676;2023-03-03T09:08:30;26.05;;;16.17;;
10957;SDS011;5531;42.570;23.676;2023-03-03T09:10:59;23.50;;;15.25;;
10957;SDS011;5531;42.570;23.676;2023-03-03T09:13:30;24.85;;;16.52;;
10957;SDS011;5531;42.570;23.676;2023-03-03T09:15:59;24.15;;;16.10;;
10957;SDS011;5531;42.570;23.676;2023-03-03T09:18:34;25.48;;;17.13;;
10957;SDS011;5531;42.570;23.676;2023-03-03T09:21:15;21.73;;;15.02;;
10957;SDS011;5531;42.570;23.676;2023-03-03T09:23:52;22.52;;;14.57;;
10957;SDS011;5531;42.570;23.676;2023-03-03T09:26:23;22.52;;;15.98;;
10957;SDS011;5531;42.570;23.676;2023-03-03T09:28:55;22.80;;;14.68;;
10957;SDS011;5531;42.570;23.676;2023-03-03T09:31:37;23.13;;;15.75;;
10957;SDS011;5531;42.570;23.676;2023-03-03T09:34:18;21.40;;;14.52;;
10957;SDS011;5531;42.570;23.676;2023-03-03T09:36:49;22.27;;;15.77;;
10957;SDS011;5531;42.570;23.676;2023-03-03T09:39:19;25.55;;;18.67;;
10957;SDS011;5531;42.570;23.676;2023-03-03T09:42:03;19.05;;;13.77;;
10957;SDS011;5531;42.570;23.676;2023-03-03T09:44:55;17.52;;;12.98;;
10957;SDS011;5531;42.570;23.676;2023-03-03T09:48:01;18.25;;;13.27;;
10957;SDS011;5531;42.570;23.676;2023-03-03T09:50:47;17.38;;;12.57;;
10957;SDS011;5531;42.570;23.676;2023-03-03T09:53:28;16.42;;;12.77;;
10957;SDS011;5531;42.570;23.676;2023-03-03T09:56:11;17.38;;;13.60;;
10957;SDS011;5531;42.570;23.676;2023-03-03T09:58:50;17.73;;;13.32;;
10957;SDS011;5531;42.570;23.676;2023-03-03T10:01:33;17.30;;;12.85;;
10957;SDS011;5531;42.570;23.676;2023-03-03T10:04:22;14.85;;;12.52;;
10957;SDS011;5531;42.570;23.676;2023-03-03T10:07:11;21.33;;;17.80;;
10957;SDS011;5531;42.570;23.676;2023-03-03T10:09:55;16.05;;;12.70;;
10957;SDS011;5531;42.570;23.676;2023-03-03T10:12:38;13.50;;;10.68;;
10957;SDS011;5531;42.570;23.676;2023-03-03T10:15:16;12.73;;;10.63;;
10957;SDS011;5531;42.570;23.676;2023-03-03T10:17:56;13.48;;;11.20;;
10957;SDS011;5531;42.570;23.676;2023-03-03T10:20:33;15.90;;;12.13;;
10957;SDS011;5531;42.570;23.676;2023-03-03T10:23:17;14.75;;;11.32;;
10957;SDS011;5531;42.570;23.676;2023-03-03T10:25:52;14.75;;;11.82;;
10957;SDS011;5531;42.570;23.676;2023-03-03T10:28:31;12.88;;;10.60;;
10957;SDS011;5531;42.570;23.676;2023-03-03T10:31:24;13.48;;;11.23;;
10957;SDS011;5531;42.570;23.676;2023-03-03T10:34:02;13.60;;;11.40;;
10957;SDS011;5531;42.570;23.676;2023-03-03T10:36:45;12.43;;;10.07;;
10957;SDS011;5531;42.570;23.676;2023-03-03T10:39:31;12.80;;;10.30;;
10957;SDS011;5531;42.570;23.676;2023-03-03T10:42:16;12.00;;;10.32;;
10957;SDS011;5531;42.570;23.676;2023-03-03T10:45:02;12.15;;;9.68;;
10957;SDS011;5531;42.570;23.676;2023-03-03T10:47:53;10.88;;;9.63;;
10957;SDS011;5531;42.570;23.676;2023-03-03T10:50:30;11.05;;;9.30;;
10957;SDS011;5531;42.570;23.676;2023-03-03T10:53:25;11.25;;;9.90;;
10957;SDS011;5531;42.570;23.676;2023-03-03T10:56:12;9.95;;;8.95;;
10957;SDS011;5531;42.570;23.676;2023-03-03T10:58:53;8.88;;;7.97;;
10957;SDS011;5531;42.570;23.676;2023-03-03T11:01:34;9.18;;;7.65;;
10957;SDS011;5531;42.570;23.676;2023-03-03T11:04:16;9.65;;;8.55;;
10957;SDS011;5531;42.570;23.676;2023-03-03T11:06:53;9.73;;;8.75;;
10957;SDS011;5531;42.570;23.676;2023-03-03T11:09:33;10.52;;;9.00;;
10957;SDS011;5531;42.570;23.676;2023-03-03T11:12:17;9.57;;;8.57;;
10957;SDS011;5531;42.570;23.676;2023-03-03T11:15:00;10.05;;;8.88;;
10957;SDS011;5531;42.570;23.676;2023-03-03T11:17:49;10.23;;;9.15;;
10957;SDS011;5531;42.570;23.676;2023-03-03T11:20:27;10.05;;;9.05;;
10957;SDS011;5531;42.570;23.676;2023-03-03T11:23:06;11.27;;;10.18;;
10957;SDS011;5531;42.570;23.676;2023-03-03T11:25:48;10.32;;;9.23;;
10957;SDS011;5531;42.570;23.676;2023-03-03T11:28:28;11.10;;;9.57;;
10957;SDS011;5531;42.570;23.676;2023-03-03T11:31:12;9.38;;;8.48;;
10957;SDS011;5531;42.570;23.676;2023-03-03T11:33:51;9.27;;;8.38;;
10957;SDS011;5531;42.570;23.676;2023-03-03T11:36:29;9.18;;;8.20;;
10957;SDS011;5531;42.570;23.676;2023-03-03T11:39:02;8.93;;;8.05;;
10957;SDS011;5531;42.570;23.676;2023-03-03T11:41:35;8.57;;;7.78;;
10957;SDS011;5531;42.570;23.676;2023-03-03T11:44:12;9.23;;;7.80;;
10957;SDS011;5531;42.570;23.676;2023-03-03T11:46:49;9.52;;;8.73;;
10957;SDS011;5531;42.570;23.676;2023-03-03T11:49:21;9.02;;;8.13;;
10957;SDS011;5531;42.570;23.676;2023-03-03T11:52:00;9.27;;;8.40;;
10957;SDS011;5531;42.570;23.676;2023-03-03T11:54:41;8.15;;;7.35;;
10957;SDS011;5531;42.570;23.676;2023-03-03T11:57:17;7.28;;;6.57;;
10957;SDS011;5531;42.570;23.676;2023-03-03T11:59:55;8.40;;;7.60;;
10957;SDS011;5531;42.570;23.676;2023-03-03T12:02:45;7.97;;;7.28;;
10957;SDS011;5531;42.570;23.676;2023-03-03T12:05:44;8.30;;;7.50;;
10957;SDS011;5531;42.570;23.676;2023-03-03T12:08:35;8.18;;;7.45;;
10957;SDS011;5531;42.570;23.676;2023-03-03T12:11:16;7.28;;;6.57;;
10957;SDS011;5531;42.570;23.676;2023-03-03T12:13:55;16.10;;;14.80;;
10957;SDS011;5531;42.570;23.676;2023-03-03T12:16:35;8.95;;;8.15;;
10957;SDS011;5531;42.570;23.676;2023-03-03T12:22:20;7.30;;;6.60;;
10957;SDS011;5531;42.570;23.676;2023-03-03T12:25:02;7.47;;;6.38;;
10957;SDS011;5531;42.570;23.676;2023-03-03T12:27:42;6.60;;;6.00;;
10957;SDS011;5531;42.570;23.676;2023-03-03T12:30:19;7.10;;;6.35;;
10957;SDS011;5531;42.570;23.676;2023-03-03T12:33:06;9.50;;;8.60;;
10957;SDS011;5531;42.570;23.676;2023-03-03T12:35:45;9.93;;;8.93;;
10957;SDS011;5531;42.570;23.676;2023-03-03T12:38:25;10.43;;;9.43;;
10957;SDS011;5531;42.570;23.676;2023-03-03T12:41:04;10.68;;;9.68;;
10957;SDS011;5531;42.570;23.676;2023-03-03T12:43:41;12.35;;;11.10;;
10957;SDS011;5531;42.570;23.676;2023-03-03T12:46:21;13.73;;;12.43;;
10957;SDS011;5531;42.570;23.676;2023-03-03T12:48:59;14.05;;;12.70;;
10957;SDS011;5531;42.570;23.676;2023-03-03T12:51:33;14.90;;;13.52;;
10957;SDS011;5531;42.570;23.676;2023-03-03T12:57:13;12.60;;;11.40;;
10957;SDS011;5531;42.570;23.676;2023-03-03T12:59:51;13.40;;;12.05;;
10957;SDS011;5531;42.570;23.676;2023-03-03T13:05:26;11.95;;;10.75;;
10957;SDS011;5531;42.570;23.676;2023-03-03T13:08:04;13.13;;;11.82;;
10957;SDS011;5531;42.570;23.676;2023-03-03T13:10:47;14.27;;;12.90;;
10957;SDS011;5531;42.570;23.676;2023-03-03T13:13:23;12.70;;;11.40;;
10957;SDS011;5531;42.570;23.676;2023-03-03T13:16:03;12.90;;;11.52;;
10957;SDS011;5531;42.570;23.676;2023-03-03T13:18:42;13.80;;;12.40;;
10957;SDS011;5531;42.570;23.676;2023-03-03T13:21:23;13.90;;;12.45;;
10957;SDS011;5531;42.570;23.676;2023-03-03T13:23:59;12.60;;;11.30;;
10957;SDS011;5531;42.570;23.676;2023-03-03T13:26:35;12.35;;;11.05;;
10957;SDS011;5531;42.570;23.676;2023-03-03T13:29:11;14.18;;;12.68;;
10957;SDS011;5531;42.570;23.676;2023-03-03T13:31:45;13.57;;;12.23;;
10957;SDS011;5531;42.570;23.676;2023-03-03T13:34:21;13.80;;;11.98;;
10957;SDS011;5531;42.570;23.676;2023-03-03T13:37:00;11.30;;;10.18;;
10957;SDS011;5531;42.570;23.676;2023-03-03T13:39:37;12.68;;;10.45;;
10957;SDS011;5531;42.570;23.676;2023-03-03T13:42:13;12.38;;;11.07;;
10957;SDS011;5531;42.570;23.676;2023-03-03T13:44:50;15.38;;;13.77;;
10957;SDS011;5531;42.570;23.676;2023-03-03T13:47:23;16.67;;;15.07;;
10957;SDS011;5531;42.570;23.676;2023-03-03T13:50:10;15.35;;;13.65;;
10957;SDS011;5531;42.570;23.676;2023-03-03T13:52:59;14.70;;;13.02;;
10957;SDS011;5531;42.570;23.676;2023-03-03T13:55:40;16.77;;;14.88;;
10957;SDS011;5531;42.570;23.676;2023-03-03T13:58:14;17.52;;;15.68;;
10957;SDS011;5531;42.570;23.676;2023-03-03T14:00:54;18.08;;;16.17;;
10957;SDS011;5531;42.570;23.676;2023-03-03T14:06:21;17.27;;;14.52;;
10957;SDS011;5531;42.570;23.676;2023-03-03T14:09:02;16.90;;;15.18;;
10957;SDS011;5531;42.570;23.676;2023-03-03T14:11:51;18.73;;;15.95;;
10957;SDS011;5531;42.570;23.676;2023-03-03T14:14:32;20.25;;;18.15;;
10957;SDS011;5531;42.570;23.676;2023-03-03T14:17:13;19.70;;;17.60;;
10957;SDS011;5531;42.570;23.676;2023-03-03T14:19:51;20.77;;;18.58;;
10957;SDS011;5531;42.570;23.676;2023-03-03T14:22:31;20.75;;;18.55;;
10957;SDS011;5531;42.570;23.676;2023-03-03T14:25:12;21.73;;;19.13;;
10957;SDS011;5531;42.570;23.676;2023-03-03T14:27:53;21.67;;;18.42;;
10957;SDS011;5531;42.570;23.676;2023-03-03T14:30:33;25.70;;;20.48;;
10957;SDS011;5531;42.570;23.676;2023-03-03T14:33:16;21.77;;;18.60;;
10957;SDS011;5531;42.570;23.676;2023-03-03T14:35:49;21.40;;;18.15;;
10957;SDS011;5531;42.570;23.676;2023-03-03T14:38:38;19.55;;;17.38;;
10957;SDS011;5531;42.570;23.676;2023-03-03T14:41:15;19.40;;;17.27;;
10957;SDS011;5531;42.570;23.676;2023-03-03T14:43:55;19.77;;;17.70;;
10957;SDS011;5531;42.570;23.676;2023-03-03T14:46:30;22.70;;;20.35;;
10957;SDS011;5531;42.570;23.676;2023-03-03T14:49:03;23.15;;;20.65;;
10957;SDS011;5531;42.570;23.676;2023-03-03T14:51:38;23.45;;;21.10;;
10957;SDS011;5531;42.570;23.676;2023-03-03T14:56:58;23.90;;;21.35;;
10957;SDS011;5531;42.570;23.676;2023-03-03T14:59:30;21.63;;;19.35;;
10957;SDS011;5531;42.570;23.676;2023-03-03T15:02:05;21.98;;;18.70;;
10957;SDS011;5531;42.570;23.676;2023-03-03T15:05:07;20.02;;;17.85;;
10957;SDS011;5531;42.570;23.676;2023-03-03T15:07:43;20.90;;;18.70;;
10957;SDS011;5531;42.570;23.676;2023-03-03T15:10:25;21.27;;;18.98;;
10957;SDS011;5531;42.570;23.676;2023-03-03T15:13:11;22.90;;;20.35;;
10957;SDS011;5531;42.570;23.676;2023-03-03T15:16:03;23.52;;;21.05;;
10957;SDS011;5531;42.570;23.676;2023-03-03T15:18:52;23.45;;;20.88;;
10957;SDS011;5531;42.570;23.676;2023-03-03T15:21:34;22.80;;;20.23;;
10957;SDS011;5531;42.570;23.676;2023-03-03T15:24:11;26.48;;;22.23;;
10957;SDS011;5531;42.570;23.676;2023-03-03T15:26:50;32.55;;;29.15;;
10957;SDS011;5531;42.570;23.676;2023-03-03T15:29:27;24.92;;;22.17;;
10957;SDS011;5531;42.570;23.676;2023-03-03T15:32:01;26.00;;;21.63;;
10957;SDS011;5531;42.570;23.676;2023-03-03T15:34:38;22.77;;;20.27;;